sensor_id;sensor_type;location;lat;lon;timestamp;P1;durP1;ratioP1;P2;durP2;ratioP2
18526;SDS011;9393;42.158;24.748;2023-02-28T00:01:52;13.93;;;8.80;;
18526;SDS011;9393;42.158;24.748;2023-02-28T00:04:56;14.80;;;8.20;;
18526;SDS011;9393;42.158;24.748;2023-02-28T00:08:05;15.33;;;8.70;;
18526;SDS011;9393;42.158;24.748;2023-02-28T00:11:09;14.17;;;7.23;;
18526;SDS011;9393;42.158;24.748;2023-02-28T00:14:15;17.47;;;7.57;;
18526;SDS011;9393;42.158;24.748;2023-02-28T00:17:20;14.23;;;7.67;;
18526;SDS011;9393;42.158;24.748;2023-02-28T00:20:24;10.40;;;6.67;;
18526;SDS011;9393;42.158;24.748;2023-02-28T00:23:28;14.37;;;7.37;;
18526;SDS011;9393;42.158;24.748;2023-02-28T00:26:32;12.87;;;7.67;;
18526;SDS011;9393;42.158;24.748;2023-02-28T00:29:36;12.97;;;7.60;;
18526;SDS011;9393;42.158;24.748;2023-02-28T00:32:42;16.37;;;8.53;;
18526;SDS011;9393;42.158;24.748;2023-02-28T00:35:46;12.77;;;7.50;;
18526;SDS011;9393;42.158;24.748;2023-02-28T00:38:50;17.30;;;7.70;;
18526;SDS011;9393;42.158;24.748;2023-02-28T00:41:54;14.90;;;7.60;;
18526;SDS011;9393;42.158;24.748;2023-02-28T00:44:58;13.70;;;8.23;;
18526;SDS011;9393;42.158;24.748;2023-02-28T00:48:03;14.77;;;7.20;;
18526;SDS011;9393;42.158;24.748;2023-02-28T00:51:08;17.70;;;7.60;;
18526;SDS011;9393;42.158;24.748;2023-02-28T00:54:12;16.03;;;7.80;;
18526;SDS011;9393;42.158;24.748;2023-02-28T00:57:16;18.13;;;7.93;;
18526;SDS011;9393;42.158;24.748;2023-02-28T01:00:19;13.37;;;6.93;;
18526;SDS011;9393;42.158;24.748;2023-02-28T01:03:25;12.33;;;7.63;;
18526;SDS011;9393;42.158;24.748;2023-02-28T01:06:29;11.03;;;6.77;;
18526;SDS011;9393;42.158;24.748;2023-02-28T01:09:33;21.63;;;8.37;;
18526;SDS011;9393;42.158;24.748;2023-02-28T01:12:38;14.83;;;7.33;;
18526;SDS011;9393;42.158;24.748;2023-02-28T01:15:43;16.40;;;7.80;;
18526;SDS011;9393;42.158;24.748;2023-02-28T01:18:54;15.70;;;6.93;;
18526;SDS011;9393;42.158;24.748;2023-02-28T01:22:00;16.80;;;7.97;;
18526;SDS011;9393;42.158;24.748;2023-02-28T01:25:04;13.10;;;6.90;;
18526;SDS011;9393;42.158;24.748;2023-02-28T01:28:09;12.93;;;6.53;;
18526;SDS011;9393;42.158;24.748;2023-02-28T01:31:12;15.93;;;6.20;;
18526;SDS011;9393;42.158;24.748;2023-02-28T01:34:18;13.07;;;6.00;;
18526;SDS011;9393;42.158;24.748;2023-02-28T01:37:22;16.17;;;7.00;;
18526;SDS011;9393;42.158;24.748;2023-02-28T01:40:25;20.43;;;6.57;;
18526;SDS011;9393;42.158;24.748;2023-02-28T01:43:30;13.40;;;7.30;;
18526;SDS011;9393;42.158;24.748;2023-02-28T01:46:35;17.70;;;7.10;;
18526;SDS011;9393;42.158;24.748;2023-02-28T01:49:40;19.67;;;6.90;;
18526;SDS011;9393;42.158;24.748;2023-02-28T01:52:47;15.17;;;7.60;;
18526;SDS011;9393;42.158;24.748;2023-02-28T01:55:52;12.77;;;6.47;;
18526;SDS011;9393;42.158;24.748;2023-02-28T01:58:57;13.57;;;6.90;;
18526;SDS011;9393;42.158;24.748;2023-02-28T02:02:00;12.43;;;6.73;;
18526;SDS011;9393;42.158;24.748;2023-02-28T02:05:09;21.97;;;6.93;;
18526;SDS011;9393;42.158;24.748;2023-02-28T02:08:15;20.00;;;7.10;;
18526;SDS011;9393;42.158;24.748;2023-02-28T02:11:22;14.30;;;6.60;;
18526;SDS011;9393;42.158;24.748;2023-02-28T02:14:34;11.47;;;6.80;;
18526;SDS011;9393;42.158;24.748;2023-02-28T02:17:48;11.43;;;6.53;;
18526;SDS011;9393;42.158;24.748;2023-02-28T02:21:10;15.60;;;7.60;;
18526;SDS011;9393;42.158;24.748;2023-02-28T02:24:48;13.13;;;7.50;;
18526;SDS011;9393;42.158;24.748;2023-02-28T02:35:20;20.93;;;9.30;;
18526;SDS011;9393;42.158;24.748;2023-02-28T02:38:33;25.33;;;8.67;;
18526;SDS011;9393;42.158;24.748;2023-02-28T02:41:43;18.70;;;9.67;;
18526;SDS011;9393;42.158;24.748;2023-02-28T02:44:53;18.17;;;8.90;;
18526;SDS011;9393;42.158;24.748;2023-02-28T02:48:02;17.57;;;8.93;;
18526;SDS011;9393;42.158;24.748;2023-02-28T02:51:10;19.97;;;9.50;;
18526;SDS011;9393;42.158;24.748;2023-02-28T02:54:19;20.23;;;9.10;;
18526;SDS011;9393;42.158;24.748;2023-02-28T02:57:27;17.67;;;8.40;;
18526;SDS011;9393;42.158;24.748;2023-02-28T03:00:35;22.07;;;8.80;;
18526;SDS011;9393;42.158;24.748;2023-02-28T03:03:44;23.27;;;8.77;;
18526;SDS011;9393;42.158;24.748;2023-02-28T03:06:51;22.97;;;9.47;;
18526;SDS011;9393;42.158;24.748;2023-02-28T03:09:56;21.03;;;9.43;;
18526;SDS011;9393;42.158;24.748;2023-02-28T03:13:10;21.27;;;10.00;;
18526;SDS011;9393;42.158;24.748;2023-02-28T03:19:48;17.50;;;9.90;;
18526;SDS011;9393;42.158;24.748;2023-02-28T03:23:06;22.70;;;9.77;;
18526;SDS011;9393;42.158;24.748;2023-02-28T03:26:21;17.40;;;10.00;;
18526;SDS011;9393;42.158;24.748;2023-02-28T03:29:32;18.80;;;9.80;;
18526;SDS011;9393;42.158;24.748;2023-02-28T03:32:38;22.07;;;10.53;;
18526;SDS011;9393;42.158;24.748;2023-02-28T03:35:48;20.60;;;11.10;;
18526;SDS011;9393;42.158;24.748;2023-02-28T03:38:58;20.93;;;10.97;;
18526;SDS011;9393;42.158;24.748;2023-02-28T03:42:05;21.03;;;10.70;;
18526;SDS011;9393;42.158;24.748;2023-02-28T03:45:13;23.80;;;11.63;;
18526;SDS011;9393;42.158;24.748;2023-02-28T03:48:22;21.13;;;12.30;;
18526;SDS011;9393;42.158;24.748;2023-02-28T03:51:30;20.40;;;11.07;;
18526;SDS011;9393;42.158;24.748;2023-02-28T03:54:39;15.73;;;10.13;;
18526;SDS011;9393;42.158;24.748;2023-02-28T03:57:50;20.93;;;11.30;;
18526;SDS011;9393;42.158;24.748;2023-02-28T04:01:00;19.63;;;11.77;;
18526;SDS011;9393;42.158;24.748;2023-02-28T04:04:10;21.40;;;12.57;;
18526;SDS011;9393;42.158;24.748;2023-02-28T04:07:15;25.07;;;13.73;;
18526;SDS011;9393;42.158;24.748;2023-02-28T04:10:21;23.17;;;11.70;;
18526;SDS011;9393;42.158;24.748;2023-02-28T04:13:25;17.70;;;10.37;;
18526;SDS011;9393;42.158;24.748;2023-02-28T04:16:29;17.23;;;10.70;;
18526;SDS011;9393;42.158;24.748;2023-02-28T04:19:36;19.53;;;10.97;;
18526;SDS011;9393;42.158;24.748;2023-02-28T04:22:40;17.83;;;9.73;;
18526;SDS011;9393;42.158;24.748;2023-02-28T04:25:45;20.53;;;10.73;;
18526;SDS011;9393;42.158;24.748;2023-02-28T04:28:49;16.33;;;10.30;;
18526;SDS011;9393;42.158;24.748;2023-02-28T04:31:53;18.07;;;10.63;;
18526;SDS011;9393;42.158;24.748;2023-02-28T04:34:59;20.37;;;11.10;;
18526;SDS011;9393;42.158;24.748;2023-02-28T04:38:04;18.67;;;11.07;;
18526;SDS011;9393;42.158;24.748;2023-02-28T04:41:09;20.20;;;12.33;;
18526;SDS011;9393;42.158;24.748;2023-02-28T04:44:13;20.43;;;10.27;;
18526;SDS011;9393;42.158;24.748;2023-02-28T04:47:17;18.67;;;10.60;;
18526;SDS011;9393;42.158;24.748;2023-02-28T04:50:21;18.37;;;10.60;;
18526;SDS011;9393;42.158;24.748;2023-02-28T04:53:25;17.43;;;9.53;;
18526;SDS011;9393;42.158;24.748;2023-02-28T04:56:31;20.60;;;10.70;;
18526;SDS011;9393;42.158;24.748;2023-02-28T04:59:35;17.00;;;10.30;;
18526;SDS011;9393;42.158;24.748;2023-02-28T05:02:39;20.73;;;10.40;;
18526;SDS011;9393;42.158;24.748;2023-02-28T05:05:42;26.27;;;10.30;;
18526;SDS011;9393;42.158;24.748;2023-02-28T05:08:46;18.77;;;10.90;;
18526;SDS011;9393;42.158;24.748;2023-02-28T05:11:51;18.57;;;11.10;;
18526;SDS011;9393;42.158;24.748;2023-02-28T05:14:55;19.23;;;10.67;;
18526;SDS011;9393;42.158;24.748;2023-02-28T05:17:59;18.87;;;11.10;;
18526;SDS011;9393;42.158;24.748;2023-02-28T05:21:03;19.47;;;10.83;;
18526;SDS011;9393;42.158;24.748;2023-02-28T05:24:07;17.47;;;11.17;;
18526;SDS011;9393;42.158;24.748;2023-02-28T05:27:15;21.77;;;11.27;;
18526;SDS011;9393;42.158;24.748;2023-02-28T05:30:18;15.30;;;9.57;;
18526;SDS011;9393;42.158;24.748;2023-02-28T05:33:22;18.00;;;10.47;;
18526;SDS011;9393;42.158;24.748;2023-02-28T05:36:26;20.53;;;11.37;;
18526;SDS011;9393;42.158;24.748;2023-02-28T05:39:30;16.43;;;10.43;;
18526;SDS011;9393;42.158;24.748;2023-02-28T05:42:35;20.83;;;10.33;;
18526;SDS011;9393;42.158;24.748;2023-02-28T05:45:39;16.73;;;9.23;;
18526;SDS011;9393;42.158;24.748;2023-02-28T05:48:45;18.63;;;10.03;;
18526;SDS011;9393;42.158;24.748;2023-02-28T05:51:50;20.00;;;9.97;;
18526;SDS011;9393;42.158;24.748;2023-02-28T05:54:54;16.30;;;9.97;;
18526;SDS011;9393;42.158;24.748;2023-02-28T05:57:59;17.40;;;10.03;;
18526;SDS011;9393;42.158;24.748;2023-02-28T06:04:24;16.27;;;9.90;;
18526;SDS011;9393;42.158;24.748;2023-02-28T06:07:32;17.53;;;9.17;;
18526;SDS011;9393;42.158;24.748;2023-02-28T06:10:36;14.53;;;7.90;;
18526;SDS011;9393;42.158;24.748;2023-02-28T06:13:41;20.90;;;10.40;;
18526;SDS011;9393;42.158;24.748;2023-02-28T06:16:46;17.60;;;10.67;;
18526;SDS011;9393;42.158;24.748;2023-02-28T06:19:50;18.30;;;9.53;;
18526;SDS011;9393;42.158;24.748;2023-02-28T06:22:55;17.40;;;8.70;;
18526;SDS011;9393;42.158;24.748;2023-02-28T06:26:00;15.27;;;10.70;;
18526;SDS011;9393;42.158;24.748;2023-02-28T06:29:05;22.03;;;11.63;;
18526;SDS011;9393;42.158;24.748;2023-02-28T06:32:09;27.23;;;12.60;;
18526;SDS011;9393;42.158;24.748;2023-02-28T06:35:13;19.00;;;9.83;;
18526;SDS011;9393;42.158;24.748;2023-02-28T06:38:17;26.67;;;12.83;;
18526;SDS011;9393;42.158;24.748;2023-02-28T06:41:22;22.93;;;12.40;;
18526;SDS011;9393;42.158;24.748;2023-02-28T06:44:28;19.47;;;8.90;;
18526;SDS011;9393;42.158;24.748;2023-02-28T06:47:37;22.23;;;12.03;;
18526;SDS011;9393;42.158;24.748;2023-02-28T06:50:43;19.17;;;11.90;;
18526;SDS011;9393;42.158;24.748;2023-02-28T06:53:46;22.27;;;11.70;;
18526;SDS011;9393;42.158;24.748;2023-02-28T06:56:50;17.27;;;11.73;;
18526;SDS011;9393;42.158;24.748;2023-02-28T06:59:57;20.60;;;12.10;;
18526;SDS011;9393;42.158;24.748;2023-02-28T07:03:02;18.50;;;11.33;;
18526;SDS011;9393;42.158;24.748;2023-02-28T07:06:05;21.57;;;10.27;;
18526;SDS011;9393;42.158;24.748;2023-02-28T07:09:09;20.40;;;11.10;;
18526;SDS011;9393;42.158;24.748;2023-02-28T07:12:13;24.57;;;12.73;;
18526;SDS011;9393;42.158;24.748;2023-02-28T07:15:19;29.03;;;12.43;;
18526;SDS011;9393;42.158;24.748;2023-02-28T07:18:22;22.33;;;13.07;;
18526;SDS011;9393;42.158;24.748;2023-02-28T07:21:27;24.83;;;14.13;;
18526;SDS011;9393;42.158;24.748;2023-02-28T07:24:31;25.77;;;15.33;;
18526;SDS011;9393;42.158;24.748;2023-02-28T07:27:35;25.70;;;15.40;;
18526;SDS011;9393;42.158;24.748;2023-02-28T07:30:40;24.10;;;13.47;;
18526;SDS011;9393;42.158;24.748;2023-02-28T07:33:44;32.40;;;15.43;;
18526;SDS011;9393;42.158;24.748;2023-02-28T07:36:48;33.17;;;15.43;;
18526;SDS011;9393;42.158;24.748;2023-02-28T07:39:55;25.43;;;15.67;;
18526;SDS011;9393;42.158;24.748;2023-02-28T07:42:59;23.80;;;10.63;;
18526;SDS011;9393;42.158;24.748;2023-02-28T07:46:05;27.10;;;15.50;;
18526;SDS011;9393;42.158;24.748;2023-02-28T07:49:11;31.97;;;16.20;;
18526;SDS011;9393;42.158;24.748;2023-02-28T07:52:15;31.97;;;15.07;;
18526;SDS011;9393;42.158;24.748;2023-02-28T07:55:19;30.03;;;15.83;;
18526;SDS011;9393;42.158;24.748;2023-02-28T07:58:23;30.63;;;16.20;;
18526;SDS011;9393;42.158;24.748;2023-02-28T08:01:29;29.27;;;14.87;;
18526;SDS011;9393;42.158;24.748;2023-02-28T08:04:33;22.87;;;14.63;;
18526;SDS011;9393;42.158;24.748;2023-02-28T08:07:37;25.70;;;14.63;;
18526;SDS011;9393;42.158;24.748;2023-02-28T08:10:41;29.43;;;16.90;;
18526;SDS011;9393;42.158;24.748;2023-02-28T08:13:45;26.10;;;16.87;;
18526;SDS011;9393;42.158;24.748;2023-02-28T08:16:50;25.93;;;13.63;;
18526;SDS011;9393;42.158;24.748;2023-02-28T08:19:54;31.97;;;15.97;;
18526;SDS011;9393;42.158;24.748;2023-02-28T08:22:58;24.53;;;14.33;;
18526;SDS011;9393;42.158;24.748;2023-02-28T08:26:02;27.97;;;13.57;;
18526;SDS011;9393;42.158;24.748;2023-02-28T08:29:07;37.03;;;16.93;;
18526;SDS011;9393;42.158;24.748;2023-02-28T08:32:12;26.33;;;15.43;;
18526;SDS011;9393;42.158;24.748;2023-02-28T08:35:30;32.57;;;16.83;;
18526;SDS011;9393;42.158;24.748;2023-02-28T08:38:34;32.73;;;16.77;;
18526;SDS011;9393;42.158;24.748;2023-02-28T08:41:38;30.97;;;16.57;;
18526;SDS011;9393;42.158;24.748;2023-02-28T08:44:43;35.80;;;17.03;;
18526;SDS011;9393;42.158;24.748;2023-02-28T08:47:48;29.67;;;16.70;;
18526;SDS011;9393;42.158;24.748;2023-02-28T08:50:54;29.30;;;15.50;;
18526;SDS011;9393;42.158;24.748;2023-02-28T08:54:08;30.13;;;16.17;;
18526;SDS011;9393;42.158;24.748;2023-02-28T08:57:14;28.80;;;15.87;;
18526;SDS011;9393;42.158;24.748;2023-02-28T09:00:18;32.83;;;16.40;;
18526;SDS011;9393;42.158;24.748;2023-02-28T09:03:24;25.33;;;16.47;;
18526;SDS011;9393;42.158;24.748;2023-02-28T09:06:29;25.60;;;15.97;;
18526;SDS011;9393;42.158;24.748;2023-02-28T09:09:33;28.83;;;16.23;;
18526;SDS011;9393;42.158;24.748;2023-02-28T09:12:37;25.67;;;16.87;;
18526;SDS011;9393;42.158;24.748;2023-02-28T09:15:41;28.13;;;14.93;;
18526;SDS011;9393;42.158;24.748;2023-02-28T09:18:47;29.63;;;18.13;;
18526;SDS011;9393;42.158;24.748;2023-02-28T09:21:51;31.40;;;18.10;;
18526;SDS011;9393;42.158;24.748;2023-02-28T09:24:55;27.33;;;18.17;;
18526;SDS011;9393;42.158;24.748;2023-02-28T09:27:58;28.10;;;17.70;;
18526;SDS011;9393;42.158;24.748;2023-02-28T09:31:03;26.80;;;16.03;;
18526;SDS011;9393;42.158;24.748;2023-02-28T09:34:08;29.13;;;18.87;;
18526;SDS011;9393;42.158;24.748;2023-02-28T09:37:12;28.40;;;18.10;;
18526;SDS011;9393;42.158;24.748;2023-02-28T09:40:16;27.23;;;17.90;;
18526;SDS011;9393;42.158;24.748;2023-02-28T09:43:22;31.43;;;19.40;;
18526;SDS011;9393;42.158;24.748;2023-02-28T09:46:30;32.63;;;17.83;;
18526;SDS011;9393;42.158;24.748;2023-02-28T09:49:39;28.77;;;16.17;;
18526;SDS011;9393;42.158;24.748;2023-02-28T09:52:45;28.37;;;17.47;;
18526;SDS011;9393;42.158;24.748;2023-02-28T09:55:52;29.10;;;17.50;;
18526;SDS011;9393;42.158;24.748;2023-02-28T09:59:01;31.43;;;18.97;;
18526;SDS011;9393;42.158;24.748;2023-02-28T10:02:19;32.33;;;18.17;;
18526;SDS011;9393;42.158;24.748;2023-02-28T10:05:43;30.90;;;18.70;;
18526;SDS011;9393;42.158;24.748;2023-02-28T10:08:55;33.73;;;19.87;;
18526;SDS011;9393;42.158;24.748;2023-02-28T10:12:04;34.23;;;20.93;;
18526;SDS011;9393;42.158;24.748;2023-02-28T10:15:08;31.50;;;18.70;;
18526;SDS011;9393;42.158;24.748;2023-02-28T10:18:19;29.13;;;19.43;;
18526;SDS011;9393;42.158;24.748;2023-02-28T10:21:30;31.83;;;18.63;;
18526;SDS011;9393;42.158;24.748;2023-02-28T10:24:39;37.27;;;19.30;;
18526;SDS011;9393;42.158;24.748;2023-02-28T10:27:45;34.03;;;20.07;;
18526;SDS011;9393;42.158;24.748;2023-02-28T10:30:50;39.03;;;21.13;;
18526;SDS011;9393;42.158;24.748;2023-02-28T10:33:55;35.87;;;20.43;;
18526;SDS011;9393;42.158;24.748;2023-02-28T10:37:01;35.03;;;20.87;;
18526;SDS011;9393;42.158;24.748;2023-02-28T10:40:24;37.13;;;20.17;;
18526;SDS011;9393;42.158;24.748;2023-02-28T10:43:31;43.17;;;22.40;;
18526;SDS011;9393;42.158;24.748;2023-02-28T10:46:35;43.73;;;22.03;;
18526;SDS011;9393;42.158;24.748;2023-02-28T10:49:39;35.70;;;21.30;;
18526;SDS011;9393;42.158;24.748;2023-02-28T10:52:52;42.00;;;21.23;;
18526;SDS011;9393;42.158;24.748;2023-02-28T10:55:58;37.73;;;19.43;;
18526;SDS011;9393;42.158;24.748;2023-02-28T10:59:20;42.47;;;24.80;;
18526;SDS011;9393;42.158;24.748;2023-02-28T11:02:32;41.53;;;23.03;;
18526;SDS011;9393;42.158;24.748;2023-02-28T11:05:37;44.63;;;24.23;;
18526;SDS011;9393;42.158;24.748;2023-02-28T11:08:45;40.03;;;22.90;;
18526;SDS011;9393;42.158;24.748;2023-02-28T11:11:51;37.97;;;21.83;;
18526;SDS011;9393;42.158;24.748;2023-02-28T11:14:55;36.27;;;23.17;;
18526;SDS011;9393;42.158;24.748;2023-02-28T11:18:05;40.73;;;24.57;;
18526;SDS011;9393;42.158;24.748;2023-02-28T11:21:24;42.40;;;23.23;;
18526;SDS011;9393;42.158;24.748;2023-02-28T11:24:35;35.10;;;20.40;;
18526;SDS011;9393;42.158;24.748;2023-02-28T11:27:46;38.33;;;22.40;;
18526;SDS011;9393;42.158;24.748;2023-02-28T11:31:02;36.60;;;22.83;;
18526;SDS011;9393;42.158;24.748;2023-02-28T11:34:22;40.40;;;23.50;;
18526;SDS011;9393;42.158;24.748;2023-02-28T11:37:29;38.00;;;21.70;;
18526;SDS011;9393;42.158;24.748;2023-02-28T11:40:39;38.37;;;22.20;;
18526;SDS011;9393;42.158;24.748;2023-02-28T11:43:56;39.37;;;22.87;;
18526;SDS011;9393;42.158;24.748;2023-02-28T11:47:09;37.50;;;22.10;;
18526;SDS011;9393;42.158;24.748;2023-02-28T11:50:21;39.33;;;22.07;;
18526;SDS011;9393;42.158;24.748;2023-02-28T11:53:37;38.73;;;21.83;;
18526;SDS011;9393;42.158;24.748;2023-02-28T11:56:55;35.90;;;23.03;;
18526;SDS011;9393;42.158;24.748;2023-02-28T12:00:06;38.83;;;22.97;;
18526;SDS011;9393;42.158;24.748;2023-02-28T12:03:26;39.03;;;22.23;;
18526;SDS011;9393;42.158;24.748;2023-02-28T12:06:36;38.77;;;22.63;;
18526;SDS011;9393;42.158;24.748;2023-02-28T12:09:49;33.33;;;21.57;;
18526;SDS011;9393;42.158;24.748;2023-02-28T12:13:05;39.20;;;23.40;;
18526;SDS011;9393;42.158;24.748;2023-02-28T12:16:26;45.00;;;24.33;;
18526;SDS011;9393;42.158;24.748;2023-02-28T12:19:41;40.03;;;24.10;;
18526;SDS011;9393;42.158;24.748;2023-02-28T12:22:52;40.20;;;23.80;;
18526;SDS011;9393;42.158;24.748;2023-02-28T12:26:02;43.37;;;25.87;;
18526;SDS011;9393;42.158;24.748;2023-02-28T12:29:19;41.03;;;24.37;;
18526;SDS011;9393;42.158;24.748;2023-02-28T12:32:26;36.53;;;24.37;;
18526;SDS011;9393;42.158;24.748;2023-02-28T12:35:36;34.80;;;20.43;;
18526;SDS011;9393;42.158;24.748;2023-02-28T12:38:48;40.17;;;23.57;;
18526;SDS011;9393;42.158;24.748;2023-02-28T12:41:59;37.43;;;21.90;;
18526;SDS011;9393;42.158;24.748;2023-02-28T12:45:12;43.00;;;26.57;;
18526;SDS011;9393;42.158;24.748;2023-02-28T12:48:24;41.13;;;24.17;;
18526;SDS011;9393;42.158;24.748;2023-02-28T12:51:32;38.93;;;22.67;;
18526;SDS011;9393;42.158;24.748;2023-02-28T12:54:40;39.50;;;25.27;;
18526;SDS011;9393;42.158;24.748;2023-02-28T12:57:55;36.87;;;21.67;;
18526;SDS011;9393;42.158;24.748;2023-02-28T13:12:12;35.43;;;22.83;;
18526;SDS011;9393;42.158;24.748;2023-02-28T13:15:18;46.23;;;25.97;;
18526;SDS011;9393;42.158;24.748;2023-02-28T13:18:31;46.13;;;30.80;;
18526;SDS011;9393;42.158;24.748;2023-02-28T13:21:42;42.83;;;26.83;;
18526;SDS011;9393;42.158;24.748;2023-02-28T13:24:50;35.63;;;20.73;;
18526;SDS011;9393;42.158;24.748;2023-02-28T13:27:55;39.10;;;25.53;;
18526;SDS011;9393;42.158;24.748;2023-02-28T13:31:03;33.80;;;21.93;;
18526;SDS011;9393;42.158;24.748;2023-02-28T13:34:14;40.77;;;23.53;;
18526;SDS011;9393;42.158;24.748;2023-02-28T13:40:44;46.30;;;24.73;;
18526;SDS011;9393;42.158;24.748;2023-02-28T13:47:24;44.23;;;26.50;;
18526;SDS011;9393;42.158;24.748;2023-02-28T13:50:35;51.70;;;32.83;;
18526;SDS011;9393;42.158;24.748;2023-02-28T13:53:54;49.50;;;32.50;;
18526;SDS011;9393;42.158;24.748;2023-02-28T13:57:06;49.47;;;32.30;;
18526;SDS011;9393;42.158;24.748;2023-02-28T14:00:23;43.67;;;27.37;;
18526;SDS011;9393;42.158;24.748;2023-02-28T14:03:41;38.73;;;26.60;;
18526;SDS011;9393;42.158;24.748;2023-02-28T14:07:01;37.23;;;25.47;;
18526;SDS011;9393;42.158;24.748;2023-02-28T14:10:06;41.17;;;26.43;;
18526;SDS011;9393;42.158;24.748;2023-02-28T14:13:39;35.27;;;22.30;;
18526;SDS011;9393;42.158;24.748;2023-02-28T14:16:48;46.27;;;29.60;;
18526;SDS011;9393;42.158;24.748;2023-02-28T14:19:52;39.70;;;26.17;;
18526;SDS011;9393;42.158;24.748;2023-02-28T14:22:58;57.60;;;36.90;;
18526;SDS011;9393;42.158;24.748;2023-02-28T14:26:13;33.97;;;20.50;;
18526;SDS011;9393;42.158;24.748;2023-02-28T14:29:34;31.83;;;20.20;;
18526;SDS011;9393;42.158;24.748;2023-02-28T14:32:54;31.60;;;21.23;;
18526;SDS011;9393;42.158;24.748;2023-02-28T14:36:16;26.30;;;17.80;;
18526;SDS011;9393;42.158;24.748;2023-02-28T14:39:24;29.07;;;19.17;;
18526;SDS011;9393;42.158;24.748;2023-02-28T14:42:30;27.83;;;16.53;;
18526;SDS011;9393;42.158;24.748;2023-02-28T14:45:35;30.57;;;18.80;;
18526;SDS011;9393;42.158;24.748;2023-02-28T14:48:40;30.13;;;17.43;;
18526;SDS011;9393;42.158;24.748;2023-02-28T14:51:44;32.90;;;19.10;;
18526;SDS011;9393;42.158;24.748;2023-02-28T14:54:52;30.73;;;18.93;;
18526;SDS011;9393;42.158;24.748;2023-02-28T14:57:58;27.70;;;17.97;;
18526;SDS011;9393;42.158;24.748;2023-02-28T15:01:05;28.40;;;16.67;;
18526;SDS011;9393;42.158;24.748;2023-02-28T15:04:24;26.60;;;17.40;;
18526;SDS011;9393;42.158;24.748;2023-02-28T15:07:30;27.97;;;18.93;;
18526;SDS011;9393;42.158;24.748;2023-02-28T15:10:36;36.43;;;23.93;;
18526;SDS011;9393;42.158;24.748;2023-02-28T15:13:43;28.40;;;18.13;;
18526;SDS011;9393;42.158;24.748;2023-02-28T15:16:50;31.73;;;21.17;;
18526;SDS011;9393;42.158;24.748;2023-02-28T15:19:59;33.83;;;22.73;;
18526;SDS011;9393;42.158;24.748;2023-02-28T15:23:04;30.93;;;21.40;;
18526;SDS011;9393;42.158;24.748;2023-02-28T15:26:10;24.93;;;17.53;;
18526;SDS011;9393;42.158;24.748;2023-02-28T15:29:19;21.20;;;14.17;;
18526;SDS011;9393;42.158;24.748;2023-02-28T15:32:26;22.70;;;16.23;;
18526;SDS011;9393;42.158;24.748;2023-02-28T15:35:32;24.93;;;15.27;;
18526;SDS011;9393;42.158;24.748;2023-02-28T15:38:36;25.33;;;15.63;;
18526;SDS011;9393;42.158;24.748;2023-02-28T15:41:42;21.93;;;13.80;;
18526;SDS011;9393;42.158;24.748;2023-02-28T15:44:45;19.90;;;12.77;;
18526;SDS011;9393;42.158;24.748;2023-02-28T15:47:50;23.53;;;14.70;;
18526;SDS011;9393;42.158;24.748;2023-02-28T15:50:56;27.03;;;16.40;;
18526;SDS011;9393;42.158;24.748;2023-02-28T15:54:04;28.00;;;18.13;;
18526;SDS011;9393;42.158;24.748;2023-02-28T15:57:13;22.37;;;13.97;;
18526;SDS011;9393;42.158;24.748;2023-02-28T16:00:20;25.67;;;15.07;;
18526;SDS011;9393;42.158;24.748;2023-02-28T16:03:26;26.27;;;16.13;;
18526;SDS011;9393;42.158;24.748;2023-02-28T16:06:38;24.70;;;15.87;;
18526;SDS011;9393;42.158;24.748;2023-02-28T16:09:44;32.00;;;17.70;;
18526;SDS011;9393;42.158;24.748;2023-02-28T16:12:50;28.47;;;16.50;;
18526;SDS011;9393;42.158;24.748;2023-02-28T16:15:55;26.53;;;16.27;;
18526;SDS011;9393;42.158;24.748;2023-02-28T16:19:01;28.27;;;17.30;;
18526;SDS011;9393;42.158;24.748;2023-02-28T16:22:05;28.17;;;15.60;;
18526;SDS011;9393;42.158;24.748;2023-02-28T16:25:10;44.00;;;24.87;;
18526;SDS011;9393;42.158;24.748;2023-02-28T16:28:18;28.83;;;16.57;;
18526;SDS011;9393;42.158;24.748;2023-02-28T16:31:24;25.17;;;13.90;;
18526;SDS011;9393;42.158;24.748;2023-02-28T16:34:28;28.57;;;17.70;;
18526;SDS011;9393;42.158;24.748;2023-02-28T16:37:32;27.43;;;17.27;;
18526;SDS011;9393;42.158;24.748;2023-02-28T16:40:36;28.43;;;16.20;;
18526;SDS011;9393;42.158;24.748;2023-02-28T16:43:41;31.27;;;18.33;;
18526;SDS011;9393;42.158;24.748;2023-02-28T16:46:46;27.43;;;17.43;;
18526;SDS011;9393;42.158;24.748;2023-02-28T16:49:50;29.43;;;17.43;;
18526;SDS011;9393;42.158;24.748;2023-02-28T16:52:53;27.23;;;15.97;;
18526;SDS011;9393;42.158;24.748;2023-02-28T16:55:57;23.50;;;13.43;;
18526;SDS011;9393;42.158;24.748;2023-02-28T16:59:05;21.17;;;12.87;;
18526;SDS011;9393;42.158;24.748;2023-02-28T17:02:09;39.23;;;21.40;;
18526;SDS011;9393;42.158;24.748;2023-02-28T17:05:16;26.60;;;16.10;;
18526;SDS011;9393;42.158;24.748;2023-02-28T17:08:21;31.10;;;16.63;;
18526;SDS011;9393;42.158;24.748;2023-02-28T17:11:25;25.80;;;15.67;;
18526;SDS011;9393;42.158;24.748;2023-02-28T17:14:31;26.57;;;15.03;;
18526;SDS011;9393;42.158;24.748;2023-02-28T17:17:35;25.57;;;15.30;;
18526;SDS011;9393;42.158;24.748;2023-02-28T17:20:38;27.67;;;17.33;;
18526;SDS011;9393;42.158;24.748;2023-02-28T17:23:44;25.33;;;16.43;;
18526;SDS011;9393;42.158;24.748;2023-02-28T17:26:47;22.63;;;15.13;;
18526;SDS011;9393;42.158;24.748;2023-02-28T17:29:53;25.07;;;14.80;;
18526;SDS011;9393;42.158;24.748;2023-02-28T17:32:57;25.50;;;15.63;;
18526;SDS011;9393;42.158;24.748;2023-02-28T17:36:01;20.97;;;13.80;;
18526;SDS011;9393;42.158;24.748;2023-02-28T17:39:04;14.77;;;9.33;;
18526;SDS011;9393;42.158;24.748;2023-02-28T17:42:15;15.13;;;9.40;;
18526;SDS011;9393;42.158;24.748;2023-02-28T17:45:22;17.57;;;10.07;;
18526;SDS011;9393;42.158;24.748;2023-02-28T17:48:26;12.03;;;8.13;;
18526;SDS011;9393;42.158;24.748;2023-02-28T17:51:32;12.70;;;8.00;;
18526;SDS011;9393;42.158;24.748;2023-02-28T17:54:36;11.83;;;7.97;;
18526;SDS011;9393;42.158;24.748;2023-02-28T17:57:40;12.60;;;7.40;;
18526;SDS011;9393;42.158;24.748;2023-02-28T18:00:46;8.83;;;6.93;;
18526;SDS011;9393;42.158;24.748;2023-02-28T18:03:55;11.77;;;6.63;;
18526;SDS011;9393;42.158;24.748;2023-02-28T18:06:59;7.80;;;5.87;;
18526;SDS011;9393;42.158;24.748;2023-02-28T18:10:03;10.03;;;6.60;;
18526;SDS011;9393;42.158;24.748;2023-02-28T18:13:08;9.77;;;6.37;;
18526;SDS011;9393;42.158;24.748;2023-02-28T18:16:14;9.37;;;6.40;;
18526;SDS011;9393;42.158;24.748;2023-02-28T18:19:19;8.30;;;5.30;;
18526;SDS011;9393;42.158;24.748;2023-02-28T18:22:23;6.93;;;4.67;;
18526;SDS011;9393;42.158;24.748;2023-02-28T18:25:27;9.37;;;5.37;;
18526;SDS011;9393;42.158;24.748;2023-02-28T18:28:32;8.10;;;5.27;;
18526;SDS011;9393;42.158;24.748;2023-02-28T18:31:37;9.20;;;6.00;;
18526;SDS011;9393;42.158;24.748;2023-02-28T18:34:41;10.53;;;6.17;;
18526;SDS011;9393;42.158;24.748;2023-02-28T18:37:44;14.33;;;8.63;;
18526;SDS011;9393;42.158;24.748;2023-02-28T18:40:52;16.17;;;9.20;;
18526;SDS011;9393;42.158;24.748;2023-02-28T18:43:58;11.17;;;6.27;;
18526;SDS011;9393;42.158;24.748;2023-02-28T18:47:15;16.13;;;9.40;;
18526;SDS011;9393;42.158;24.748;2023-02-28T18:50:20;13.27;;;7.57;;
18526;SDS011;9393;42.158;24.748;2023-02-28T18:53:24;12.87;;;7.77;;